Time;durP1;ratioP1;P1;durP2;ratioP2;P2;SDS_P1;SDS_P2;PMS_P1;PMS_P2;Temp;Humidity;BMP_temperature;BMP_pressure;BME280_temperature;BME280_humidity;BME280_pressure;Samples;Min_cycle;Max_cycle;Signal;HPM_P1;HPM_P2
2022/06/07 00:02:16;;;;;;;0.43;0.43;;;25.40;53.00;;;;;;5106507;28;20047;-68
2022/06/07 00:04:43;;;;;;;0.30;0.30;;;25.40;53.00;;;;;;5104573;28;20043;-67
2022/06/07 00:07:10;;;;;;;0.50;0.50;;;25.50;53.10;;;;;;5105642;28;20076;-67
2022/06/07 00:09:38;;;;;;;0.50;0.50;;;25.40;53.00;;;;;;5105771;28;20043;-67
2022/06/07 00:12:05;;;;;;;0.52;0.43;;;25.40;53.10;;;;;;5104012;28;20521;-68
2022/06/07 00:14:34;;;;;;;0.43;0.43;;;25.40;53.10;;;;;;5104251;28;20043;-67
2022/06/07 00:17:05;;;;;;;0.40;0.40;;;25.40;53.20;;;;;;5105069;28;20055;-68
2022/06/07 00:19:33;;;;;;;0.70;0.40;;;25.40;53.20;;;;;;5104452;28;20572;-67
2022/06/07 00:22:01;;;;;;;0.50;0.50;;;25.40;53.20;;;;;;5104712;28;20040;-68
2022/06/07 00:24:29;;;;;;;0.60;0.60;;;25.40;53.20;;;;;;5105789;28;20051;-67
2022/06/07 00:26:56;;;;;;;0.57;0.57;;;25.40;53.20;;;;;;5104821;28;20087;-68
2022/06/07 00:29:25;;;;;;;0.40;0.40;;;25.40;53.20;;;;;;5106731;28;20116;-67
2022/06/07 00:31:53;;;;;;;0.65;0.65;;;25.40;53.20;;;;;;5104217;28;20461;-67
2022/06/07 00:34:21;;;;;;;0.40;0.40;;;25.40;53.20;;;;;;5105954;28;20036;-68
2022/06/07 00:36:48;;;;;;;0.40;0.40;;;25.40;53.30;;;;;;5105756;28;20054;-67
2022/06/07 00:39:15;;;;;;;0.90;0.85;;;25.40;53.30;;;;;;5104270;28;20051;-67
2022/06/07 00:41:42;;;;;;;0.73;0.73;;;25.40;53.30;;;;;;5105754;28;20099;-67
2022/06/07 00:44:34;;;;;;;0.40;0.40;;;25.40;53.30;;;;;;5099829;28;20105;-68
2022/06/07 00:47:11;;;;;;;0.50;0.50;;;25.40;53.30;;;;;;5103863;28;20103;-68
2022/06/07 00:49:45;;;;;;;0.50;0.50;;;25.30;53.20;;;;;;5104745;28;20401;-67
2022/06/07 00:52:13;;;;;;;0.50;0.50;;;25.30;53.20;;;;;;5105943;28;20051;-67
2022/06/07 00:54:40;;;;;;;0.50;0.50;;;25.30;53.20;;;;;;5105191;28;20439;-67
2022/06/07 00:57:08;;;;;;;0.50;0.50;;;25.30;53.20;;;;;;5087298;28;20051;-68
2022/06/07 00:59:36;;;;;;;0.65;0.47;;;25.30;53.30;;;;;;5105379;28;20455;-68
2022/06/07 01:02:04;;;;;;;0.50;0.50;;;25.40;53.40;;;;;;5105146;28;20047;-68
2022/06/07 01:04:31;;;;;;;1.30;0.65;;;25.30;53.30;;;;;;5104947;28;20083;-67
2022/06/07 01:12:32;;;;;;;0.30;0.30;;;25.30;53.30;;;;;;5109491;28;20355;-67
2022/06/07 01:15:00;;;;;;;0.30;0.30;;;25.30;53.40;;;;;;5107870;28;20051;-68
2022/06/07 01:17:27;;;;;;;0.40;0.40;;;25.30;53.40;;;;;;5106135;28;20120;-67
2022/06/07 01:19:55;;;;;;;0.50;0.50;;;25.30;53.40;;;;;;5109214;28;20052;-67
2022/06/07 01:22:22;;;;;;;0.57;0.57;;;25.30;53.40;;;;;;5109263;28;20097;-67
2022/06/07 01:24:50;;;;;;;0.50;0.50;;;25.30;53.40;;;;;;5109121;28;20075;-68
2022/06/07 01:27:17;;;;;;;0.60;0.60;;;25.30;53.40;;;;;;5107143;28;20105;-68
2022/06/07 01:29:44;;;;;;;0.57;0.57;;;25.20;53.40;;;;;;5108452;28;20463;-68
2022/06/07 01:32:12;;;;;;;0.30;0.30;;;25.20;53.40;;;;;;5108750;28;20043;-68
2022/06/07 01:34:42;;;;;;;0.55;0.55;;;25.30;53.50;;;;;;5108870;28;20043;-67
2022/06/07 01:37:15;;;;;;;0.55;0.55;;;25.30;53.50;;;;;;5108798;28;20043;-68
2022/06/07 01:42:31;;;;;;;0.50;0.50;;;25.20;53.50;;;;;;5109062;28;20039;-68
2022/06/07 01:44:59;;;;;;;0.50;0.50;;;25.20;53.50;;;;;;5108438;28;20671;-67
2022/06/07 01:47:29;;;;;;;0.50;0.50;;;25.20;53.50;;;;;;5103356;28;20059;-67
2022/06/07 01:49:56;;;;;;;;;;;25.20;53.50;;;;;;5109720;27;20276;-67
2022/06/07 01:52:27;;;;;;;0.47;0.47;;;25.20;53.50;;;;;;5108702;28;20375;-68
2022/06/07 01:54:54;;;;;;;0.50;0.50;;;25.20;53.50;;;;;;5108601;28;20194;-67
2022/06/07 01:57:24;;;;;;;0.95;0.70;;;25.20;53.60;;;;;;5108526;28;20077;-67
2022/06/07 01:59:51;;;;;;;0.35;0.35;;;25.20;53.50;;;;;;5108806;28;20102;-67
2022/06/07 02:02:19;;;;;;;0.50;0.50;;;25.10;53.50;;;;;;5106843;28;20442;-68
2022/06/07 02:04:46;;;;;;;0.47;0.47;;;25.20;53.60;;;;;;5108582;28;20048;-68
2022/06/07 02:07:14;;;;;;;0.80;0.60;;;25.20;53.60;;;;;;5107988;28;20569;-68
2022/06/07 02:09:42;;;;;;;0.65;0.65;;;25.10;53.60;;;;;;5108061;28;20043;-68
2022/06/07 02:12:10;;;;;;;0.40;0.40;;;25.20;53.60;;;;;;5108975;28;20078;-67
2022/06/07 02:14:39;;;;;;;0.57;0.57;;;25.10;53.60;;;;;;5108171;28;20040;-67
2022/06/07 02:17:07;;;;;;;0.52;0.52;;;25.10;53.60;;;;;;5107433;28;20100;-68
2022/06/07 02:19:35;;;;;;;0.52;0.52;;;25.20;53.60;;;;;;5103671;28;20055;-67
2022/06/07 02:22:04;;;;;;;0.50;0.50;;;25.20;53.60;;;;;;5108077;28;20046;-67
2022/06/07 02:24:31;;;;;;;0.50;0.50;;;25.20;53.90;;;;;;5108102;28;20043;-67
2022/06/07 02:27:10;;;;;;;0.75;0.75;;;25.20;53.60;;;;;;5107611;28;20249;-68
2022/06/07 02:29:41;;;;;;;0.60;0.60;;;25.10;53.60;;;;;;5108757;28;20074;-68
2022/06/07 02:32:12;;;;;;;0.55;0.55;;;25.20;53.60;;;;;;5107699;28;20047;-67
2022/06/07 02:34:41;;;;;;;0.77;0.60;;;25.10;53.60;;;;;;5107884;28;20050;-68
2022/06/07 02:37:09;;;;;;;0.65;0.65;;;25.20;53.60;;;;;;5107798;28;20415;-67
2022/06/07 02:39:37;;;;;;;1.08;0.70;;;25.20;53.60;;;;;;5106556;28;20501;-68
2022/06/07 02:42:08;;;;;;;0.73;0.73;;;25.10;53.60;;;;;;5108100;28;20058;-68
2022/06/07 02:44:35;;;;;;;0.68;0.68;;;25.20;53.60;;;;;;5107516;28;20100;-68
2022/06/07 02:47:02;;;;;;;0.50;0.50;;;25.10;53.60;;;;;;5107418;28;20039;-67
2022/06/07 02:49:30;;;;;;;0.50;0.50;;;25.10;53.60;;;;;;5105222;28;20055;-67
2022/06/07 02:51:57;;;;;;;0.60;0.60;;;25.10;53.60;;;;;;5104498;28;20051;-67
2022/06/07 02:54:36;;;;;;;0.50;0.50;;;25.10;53.60;;;;;;5108182;28;20472;-67
2022/06/07 02:57:04;;;;;;;0.70;0.70;;;25.10;53.60;;;;;;5106176;28;20048;-67
2022/06/07 02:59:31;;;;;;;0.50;0.50;;;25.10;53.60;;;;;;5107524;28;20088;-67
2022/06/07 03:01:59;;;;;;;0.60;0.60;;;25.10;53.60;;;;;;5107769;27;20131;-67
2022/06/07 03:04:26;;;;;;;0.60;0.60;;;25.10;53.60;;;;;;5106222;28;20231;-67
2022/06/07 03:06:53;;;;;;;0.30;0.30;;;25.10;53.70;;;;;;5106501;28;20305;-68
2022/06/07 03:09:20;;;;;;;0.50;0.50;;;25.10;53.60;;;;;;5105864;28;20048;-67
2022/06/07 03:11:48;;;;;;;0.50;0.50;;;25.20;53.70;;;;;;5105819;28;20548;-67
2022/06/07 03:14:15;;;;;;;0.40;0.40;;;25.10;53.60;;;;;;5107554;28;20047;-67
2022/06/07 03:16:42;;;;;;;0.50;0.50;;;25.10;53.60;;;;;;5106635;28;20089;-67
2022/06/07 03:19:09;;;;;;;0.85;0.75;;;25.10;53.60;;;;;;5107528;28;20126;-68
2022/06/07 03:21:39;;;;;;;0.70;0.70;;;25.10;53.60;;;;;;5102274;28;20112;-67
2022/06/07 03:24:07;;;;;;;0.70;0.70;;;25.10;53.50;;;;;;5107260;28;20347;-68
2022/06/07 03:26:35;;;;;;;0.63;0.50;;;25.20;53.60;;;;;;5106790;28;20044;-67
2022/06/07 03:29:03;;;;;;;0.50;0.50;;;25.10;53.50;;;;;;5096612;28;20048;-67
2022/06/07 03:31:30;;;;;;;0.45;0.45;;;25.10;53.40;;;;;;5090563;28;20105;-68
2022/06/07 03:33:57;;;;;;;0.70;0.70;;;25.10;53.40;;;;;;5099572;28;20051;-67
2022/06/07 03:36:30;;;;;;;0.40;0.40;;;25.20;53.40;;;;;;5091076;28;20047;-67
2022/06/07 03:39:00;;;;;;;0.60;0.60;;;25.20;53.40;;;;;;5093248;28;20483;-68
2022/06/07 03:41:29;;;;;;;0.93;0.90;;;25.20;53.40;;;;;;5093718;28;20497;-68
2022/06/07 03:43:57;;;;;;;1.65;0.68;;;25.20;53.30;;;;;;5098274;27;20472;-67
2022/06/07 03:46:27;;;;;;;0.70;0.70;;;25.20;53.30;;;;;;5090032;28;20039;-67
2022/06/07 03:48:55;;;;;;;0.80;0.80;;;25.30;53.30;;;;;;5099849;27;20483;-68
2022/06/07 03:51:25;;;;;;;0.63;0.63;;;25.30;53.30;;;;;;5095585;28;20351;-69
2022/06/07 03:53:52;;;;;;;0.60;0.60;;;25.30;53.20;;;;;;5085168;28;20047;-68
2022/06/07 03:56:23;;;;;;;0.50;0.50;;;25.30;53.20;;;;;;5090155;28;20104;-68
2022/06/07 03:58:52;;;;;;;0.77;0.77;;;25.30;53.10;;;;;;5096838;28;20044;-68
2022/06/07 04:01:21;;;;;;;0.50;0.50;;;25.40;53.20;;;;;;5086834;28;20495;-68
2022/06/07 04:03:50;;;;;;;0.70;0.70;;;25.40;53.20;;;;;;5085740;28;20055;-68
2022/06/07 04:06:31;;;;;;;0.90;0.90;;;25.40;53.10;;;;;;5086028;28;20044;-68
2022/06/07 04:08:58;;;;;;;0.50;0.50;;;25.40;53.00;;;;;;5092544;28;20438;-67
2022/06/07 04:11:27;;;;;;;0.70;0.70;;;25.40;52.90;;;;;;5095364;28;20457;-67
2022/06/07 04:13:55;;;;;;;0.60;0.60;;;25.40;52.90;;;;;;5090042;28;20048;-68
2022/06/07 04:16:25;;;;;;;0.75;0.75;;;25.40;52.80;;;;;;5092928;28;20193;-67
2022/06/07 04:18:54;;;;;;;0.57;0.57;;;25.50;52.80;;;;;;5098883;28;20462;-67
2022/06/07 04:21:22;;;;;;;0.80;0.80;;;25.50;52.70;;;;;;5092144;28;20143;-67
2022/06/07 04:23:51;;;;;;;0.70;0.70;;;25.50;52.70;;;;;;5091167;28;20083;-67
2022/06/07 04:26:22;;;;;;;0.50;0.50;;;25.60;52.60;;;;;;5091215;28;20059;-67
2022/06/07 04:28:49;;;;;;;0.70;0.70;;;25.60;52.60;;;;;;5097161;28;20096;-67
2022/06/07 04:31:19;;;;;;;0.60;0.60;;;25.60;52.50;;;;;;5092723;28;20381;-67
2022/06/07 04:33:48;;;;;;;0.60;0.60;;;25.60;52.40;;;;;;5094086;28;20071;-68
2022/06/07 04:36:21;;;;;;;0.47;0.47;;;25.70;52.40;;;;;;5090786;28;20071;-67
2022/06/07 04:38:50;;;;;;;0.65;0.65;;;25.70;52.30;;;;;;5090784;28;20526;-67
2022/06/07 04:41:20;;;;;;;0.40;0.40;;;25.70;52.30;;;;;;5083676;28;20112;-67
2022/06/07 04:43:49;;;;;;;0.70;0.70;;;25.70;52.20;;;;;;5084493;28;20056;-67
2022/06/07 04:46:16;;;;;;;0.55;0.55;;;25.70;52.10;;;;;;5085109;28;20359;-67
2022/06/07 04:48:45;;;;;;;0.80;0.80;;;25.80;52.20;;;;;;5083976;28;20050;-67
2022/06/07 04:51:16;;;;;;;0.60;0.60;;;25.80;52.00;;;;;;5102576;28;20044;-67
2022/06/07 04:53:47;;;;;;;0.60;0.60;;;25.80;52.00;;;;;;5105224;28;20053;-68
2022/06/07 04:56:18;;;;;;;0.50;0.50;;;25.80;51.90;;;;;;5101058;28;20105;-67
2022/06/07 04:58:46;;;;;;;0.82;0.82;;;25.90;52.00;;;;;;5103503;28;20055;-68
2022/06/07 05:01:19;;;;;;;1.55;0.82;;;25.90;51.90;;;;;;5105878;28;20047;-67
2022/06/07 05:03:47;;;;;;;0.50;0.50;;;25.90;51.80;;;;;;5089864;28;20048;-67
2022/06/07 05:06:30;;;;;;;0.50;0.50;;;25.90;51.80;;;;;;5099235;28;20043;-67
2022/06/07 05:09:02;;;;;;;0.50;0.50;;;25.90;51.80;;;;;;5094489;28;20055;-67
2022/06/07 05:11:29;;;;;;;0.85;0.85;;;25.80;51.80;;;;;;5091962;28;20058;-67
2022/06/07 05:13:58;;;;;;;0.60;0.60;;;25.70;52.00;;;;;;5085676;28;20075;-67
2022/06/07 05:16:26;;;;;;;0.82;0.82;;;25.60;52.40;;;;;;5086910;28;20048;-67
2022/06/07 05:18:55;;;;;;;0.70;0.70;;;25.40;52.70;;;;;;5095420;28;20140;-67
2022/06/07 05:21:24;;;;;;;0.80;0.80;;;25.20;53.30;;;;;;5096052;28;20583;-67
2022/06/07 05:23:53;;;;;;;1.25;0.65;;;24.90;53.00;;;;;;5086164;28;20044;-66
2022/06/07 05:26:54;;;;;;;1.17;1.17;;;24.60;52.30;;;;;;5090343;28;20149;-66
2022/06/07 05:29:49;;;;;;;1.05;1.05;;;24.30;51.60;;;;;;5085263;28;21945;-68
2022/06/07 05:32:17;;;;;;;1.40;1.30;;;23.90;50.90;;;;;;5091848;28;20063;-67
2022/06/07 05:34:45;;;;;;;1.48;1.40;;;23.40;50.40;;;;;;5098198;28;20473;-69
2022/06/07 05:37:18;;;;;;;1.58;1.48;;;23.10;50.30;;;;;;5091556;28;20047;-65
2022/06/07 05:39:46;;;;;;;2.45;1.90;;;22.70;50.90;;;;;;5087628;28;20483;-65
2022/06/07 05:42:17;;;;;;;1.92;1.80;;;22.30;51.20;;;;;;5085205;28;20051;-69
2022/06/07 05:44:45;;;;;;;2.42;2.20;;;22.00;52.10;;;;;;5089334;28;20048;-68
2022/06/07 05:47:12;;;;;;;3.60;2.28;;;21.80;52.00;;;;;;5084046;28;20517;-66
2022/06/07 05:49:40;;;;;;;3.05;1.95;;;21.50;52.70;;;;;;5085924;28;20048;-70
2022/06/07 05:52:08;;;;;;;3.75;2.50;;;21.30;53.00;;;;;;5084955;28;20876;-67
2022/06/07 05:54:35;;;;;;;5.30;3.20;;;21.10;53.30;;;;;;5091546;28;20052;-66
2022/06/07 05:57:04;;;;;;;2.70;2.50;;;20.90;54.50;;;;;;5087366;28;20044;-65
2022/06/07 05:59:31;;;;;;;3.50;3.20;;;20.70;54.60;;;;;;5091630;27;20051;-68
2022/06/07 06:01:58;;;;;;;4.22;2.72;;;20.60;55.50;;;;;;5089076;28;20067;-66
2022/06/07 06:04:26;;;;;;;2.75;2.55;;;20.50;56.30;;;;;;5092816;28;20059;-67
2022/06/07 06:06:58;;;;;;;6.90;2.85;;;20.50;55.80;;;;;;5091335;28;20051;-66
2022/06/07 06:12:13;;;;;;;4.95;2.90;;;20.40;56.40;;;;;;5093858;28;20044;-68
2022/06/07 06:14:40;;;;;;;3.20;2.90;;;20.30;56.00;;;;;;5087887;28;20100;-67
2022/06/07 06:17:07;;;;;;;3.25;2.90;;;20.30;56.80;;;;;;5090436;28;20094;-67
2022/06/07 06:19:40;;;;;;;5.35;3.00;;;20.20;57.30;;;;;;5097459;28;20048;-66
2022/06/07 06:22:07;;;;;;;4.00;3.10;;;20.10;58.10;;;;;;5091434;28;20089;-66
2022/06/07 06:24:35;;;;;;;7.03;3.25;;;20.10;58.50;;;;;;5091391;28;20152;-67
2022/06/07 06:27:02;;;;;;;2.97;2.70;;;20.10;58.10;;;;;;5088992;27;20044;-68
2022/06/07 06:29:29;;;;;;;3.65;3.08;;;20.00;58.20;;;;;;5083493;28;20052;-66
2022/06/07 06:31:56;;;;;;;4.15;2.78;;;20.00;57.80;;;;;;5080369;28;20458;-66
2022/06/07 06:34:29;;;;;;;7.60;3.35;;;20.00;57.60;;;;;;5085760;27;20051;-67
2022/06/07 06:36:58;;;;;;;2.60;2.40;;;20.00;57.30;;;;;;5086838;28;20403;-68
2022/06/07 06:39:25;;;;;;;3.17;2.45;;;20.00;57.50;;;;;;5086306;28;20511;-64
2022/06/07 06:41:52;;;;;;;6.15;2.38;;;20.00;57.30;;;;;;5089920;28;20040;-65
2022/06/07 06:44:19;;;;;;;2.90;2.00;;;19.90;57.80;;;;;;5089622;28;20125;-65
2022/06/07 06:46:48;;;;;;;2.28;2.08;;;19.90;57.50;;;;;;5086137;27;20040;-67
2022/06/07 06:49:15;;;;;;;1.95;1.85;;;19.90;57.60;;;;;;5090090;28;20043;-65
2022/06/07 06:51:43;;;;;;;2.38;2.17;;;19.80;57.50;;;;;;5084286;28;20048;-67
2022/06/07 06:54:12;;;;;;;2.28;2.08;;;19.80;57.70;;;;;;5075698;28;20052;-68
2022/06/07 06:56:40;;;;;;;2.65;2.17;;;19.80;58.00;;;;;;5089468;28;20056;-68
2022/06/07 06:59:10;;;;;;;2.35;2.03;;;19.70;58.30;;;;;;5089861;28;20084;-67
2022/06/07 07:01:38;;;;;;;2.28;2.10;;;19.70;58.50;;;;;;5084808;27;20063;-67
2022/06/07 07:04:12;;;;;;;2.40;2.13;;;19.70;58.80;;;;;;5082940;28;20120;-69
2022/06/07 07:06:40;;;;;;;2.10;1.80;;;19.80;59.10;;;;;;5085938;28;20480;-67
2022/06/07 07:09:09;;;;;;;3.15;2.17;;;19.70;59.00;;;;;;5097988;27;20394;-67
2022/06/07 07:11:40;;;;;;;1.80;1.70;;;19.70;58.90;;;;;;5093552;28;20054;-67
2022/06/07 07:14:09;;;;;;;2.45;1.75;;;19.70;58.50;;;;;;5090996;28;20093;-68
2022/06/07 07:16:44;;;;;;;2.58;2.03;;;19.70;58.50;;;;;;5095917;28;20048;-68
2022/06/07 07:19:14;;;;;;;1.95;1.85;;;19.60;58.60;;;;;;5090260;28;20040;-66
2022/06/07 07:21:44;;;;;;;2.65;2.30;;;19.60;58.70;;;;;;5091695;28;21013;-66
2022/06/07 07:24:15;;;;;;;3.65;2.45;;;19.50;58.80;;;;;;5086291;28;20484;-68
2022/06/07 07:26:46;;;;;;;2.50;2.30;;;19.40;58.90;;;;;;5086517;28;20462;-67
2022/06/07 07:29:17;;;;;;;2.40;2.20;;;19.30;59.40;;;;;;5090527;28;20079;-65
2022/06/07 07:31:44;;;;;;;2.22;2.03;;;19.30;59.40;;;;;;5088316;28;20040;-69
2022/06/07 07:34:17;;;;;;;2.45;2.20;;;19.20;60.10;;;;;;5090046;28;20051;-68
2022/06/07 07:36:50;;;;;;;2.28;2.08;;;19.20;60.40;;;;;;5071010;28;21228;-69
2022/06/07 07:39:22;;;;;;;3.25;2.13;;;19.20;61.00;;;;;;5088105;28;20067;-68
2022/06/07 07:41:51;;;;;;;2.45;2.08;;;19.20;61.30;;;;;;5097554;28;20085;-67
2022/06/07 07:44:19;;;;;;;2.25;2.05;;;19.20;61.50;;;;;;5095403;28;20075;-68
2022/06/07 07:46:48;;;;;;;2.35;1.75;;;19.20;61.90;;;;;;5089693;28;20036;-66
2022/06/07 07:49:17;;;;;;;1.80;1.70;;;19.20;62.00;;;;;;5090814;28;20120;-65
2022/06/07 07:51:47;;;;;;;4.57;2.00;;;19.20;62.00;;;;;;5092493;28;20052;-66
2022/06/07 07:54:17;;;;;;;2.47;2.00;;;19.20;61.90;;;;;;5091862;28;20483;-66
2022/06/07 07:56:45;;;;;;;2.10;1.90;;;19.20;62.40;;;;;;5088084;28;20556;-65
2022/06/07 07:59:14;;;;;;;2.05;1.85;;;19.40;62.70;;;;;;5090470;27;20300;-68
2022/06/07 08:01:42;;;;;;;1.92;1.80;;;19.40;62.80;;;;;;5089613;28;20047;-67
2022/06/07 08:04:10;;;;;;;3.38;2.05;;;19.40;63.10;;;;;;5092354;28;20063;-64
2022/06/07 08:06:37;;;;;;;1.70;1.60;;;19.50;63.40;;;;;;5079707;28;20104;-65
2022/06/07 08:09:08;;;;;;;7.18;1.90;;;19.50;63.30;;;;;;5088855;28;20044;-65
2022/06/07 08:11:38;;;;;;;2.65;1.70;;;19.60;63.00;;;;;;5090147;27;20044;-64
2022/06/07 08:14:08;;;;;;;4.65;1.90;;;19.60;62.80;;;;;;5092169;28;20047;-64
2022/06/07 08:16:36;;;;;;;2.38;1.63;;;19.70;63.00;;;;;;5087682;28;20116;-64
2022/06/07 08:19:08;;;;;;;1.60;1.50;;;19.70;62.70;;;;;;5090400;28;20043;-62
2022/06/07 08:21:37;;;;;;;2.10;1.40;;;19.80;62.60;;;;;;5088434;28;20503;-62
2022/06/07 08:24:05;;;;;;;1.70;1.60;;;19.90;62.70;;;;;;5087950;28;20100;-63
2022/06/07 08:26:33;;;;;;;1.50;1.40;;;19.90;62.70;;;;;;5083242;28;20059;-64
2022/06/07 08:29:01;;;;;;;1.90;1.50;;;19.90;62.50;;;;;;5086823;28;20406;-64
2022/06/07 08:31:31;;;;;;;1.88;1.75;;;20.10;67.30;;;;;;5090187;27;20059;-67
2022/06/07 08:39:35;;;;;;;1.83;1.73;;;21.00;64.90;;;;;;5089354;28;20100;-62
2022/06/07 08:42:28;;;;;;;2.08;1.98;;;21.30;63.90;;;;;;5083853;28;20067;-67
2022/06/07 08:45:00;;;;;;;4.47;2.13;;;21.50;63.30;;;;;;5085317;28;20549;-65
2022/06/07 08:47:55;;;;;;;7.47;2.50;;;21.70;63.00;;;;;;5083106;28;20391;-65
2022/06/07 08:50:35;;;;;;;5.60;2.03;;;21.80;62.30;;;;;;5085665;28;20116;-65
2022/06/07 08:53:10;;;;;;;;;;;21.90;61.60;;;;;;5087636;28;20044;-63
2022/06/07 08:55:47;;;;;;;7.13;2.38;;;22.00;61.50;;;;;;5085829;28;19989;-62
2022/06/07 08:58:24;;;;;;;3.03;2.40;;;22.10;61.30;;;;;;5086207;28;20446;-63
2022/06/07 09:00:57;;;;;;;1.80;1.70;;;22.20;61.10;;;;;;5085503;28;20052;-64
2022/06/07 09:03:38;;;;;;;2.30;2.20;;;22.20;60.90;;;;;;5085780;28;20040;-64
2022/06/07 09:06:18;;;;;;;1.92;1.65;;;22.30;60.70;;;;;;5091101;28;20086;-65
2022/06/07 09:08:49;;;;;;;2.58;2.00;;;22.30;60.80;;;;;;5079437;28;20074;-62
2022/06/07 09:14:11;;;;;;;3.95;1.77;;;22.40;60.90;;;;;;5086486;28;20048;-66
2022/06/07 09:16:43;;;;;;;2.92;1.75;;;22.40;61.40;;;;;;5083138;28;20044;-66
2022/06/07 09:19:15;;;;;;;3.58;1.60;;;22.40;60.80;;;;;;5081902;28;20044;-66
2022/06/07 09:21:46;;;;;;;2.08;1.80;;;22.40;60.70;;;;;;5085692;28;20503;-65
2022/06/07 09:24:31;;;;;;;1.95;1.73;;;22.50;60.60;;;;;;5083553;28;20116;-65
2022/06/07 09:27:15;;;;;;;1.50;1.27;;;22.50;60.40;;;;;;5085239;28;20117;-65
2022/06/07 09:29:49;;;;;;;2.30;1.52;;;22.50;60.30;;;;;;5087918;27;20044;-65
2022/06/07 09:32:19;;;;;;;1.48;1.38;;;22.50;60.20;;;;;;5092967;27;20522;-65
2022/06/07 09:35:03;;;;;;;1.60;1.50;;;22.50;60.10;;;;;;5092327;28;20044;-69
2022/06/07 09:37:39;;;;;;;1.60;1.60;;;22.50;60.20;;;;;;5097378;27;20061;-68
2022/06/07 09:40:33;;;;;;;2.80;1.63;;;22.60;60.10;;;;;;5093866;27;20089;-69
2022/06/07 09:43:17;;;;;;;2.25;1.60;;;22.60;60.00;;;;;;5092203;28;20044;-66
2022/06/07 09:45:54;;;;;;;3.00;1.73;;;22.60;60.00;;;;;;5085072;28;20514;-66
2022/06/07 09:48:36;;;;;;;4.57;1.67;;;22.60;58.80;;;;;;5083334;28;20051;-66
2022/06/07 09:51:24;;;;;;;1.60;1.50;;;22.60;58.30;;;;;;5087187;28;20487;-69
2022/06/07 09:53:59;;;;;;;1.85;1.75;;;22.40;58.00;;;;;;5090380;28;20062;-68
2022/06/07 09:56:39;;;;;;;1.50;1.40;;;22.30;58.00;;;;;;5091001;27;20051;-72
2022/06/07 09:59:37;;;;;;;1.77;1.65;;;22.10;57.90;;;;;;5087981;28;20093;-68
2022/06/07 10:02:46;;;;;;;1.60;1.50;;;21.90;58.10;;;;;;5092349;28;20083;-66
2022/06/07 10:05:42;;;;;;;2.90;1.75;;;21.80;58.30;;;;;;5091992;28;20561;-66
2022/06/07 10:08:44;;;;;;;1.80;1.70;;;21.60;58.90;;;;;;5094858;28;20564;-69
2022/06/07 10:11:30;;;;;;;1.95;1.65;;;21.50;58.70;;;;;;5092705;27;20055;-70
2022/06/07 10:14:27;;;;;;;1.40;1.30;;;21.40;59.20;;;;;;5091234;28;20438;-70
2022/06/07 10:17:26;;;;;;;2.83;1.63;;;21.30;59.40;;;;;;5089380;28;20112;-72
2022/06/07 10:20:23;;;;;;;1.60;1.50;;;21.20;59.30;;;;;;5099889;28;20644;-69
2022/06/07 10:23:20;;;;;;;2.33;1.83;;;21.20;59.50;;;;;;5090527;28;20051;-69
2022/06/07 10:26:06;;;;;;;3.28;1.95;;;21.10;59.30;;;;;;5089395;28;20418;-68
2022/06/07 10:29:06;;;;;;;1.85;1.75;;;21.10;59.50;;;;;;5100557;27;20040;-69
2022/06/07 10:32:11;;;;;;;2.38;1.60;;;21.00;59.60;;;;;;5093935;27;20092;-69
2022/06/07 10:34:58;;;;;;;1.35;1.35;;;20.90;59.70;;;;;;5090608;27;20048;-69
2022/06/07 10:38:20;;;;;;;2.00;1.88;;;20.90;59.50;;;;;;5091648;28;20101;-70
2022/06/07 10:41:28;;;;;;;3.15;1.92;;;20.90;59.80;;;;;;5088781;28;20828;-70
2022/06/07 10:44:34;;;;;;;2.45;2.20;;;20.90;59.70;;;;;;5081118;28;20051;-70
2022/06/07 10:47:17;;;;;;;2.40;2.20;;;20.80;59.60;;;;;;5091836;28;20051;-70
2022/06/07 10:49:57;;;;;;;3.28;1.90;;;20.80;59.60;;;;;;5095912;28;20491;-69
2022/06/07 10:52:44;;;;;;;5.22;1.67;;;20.80;59.50;;;;;;5092050;28;20048;-70
2022/06/07 10:55:22;;;;;;;1.75;1.65;;;20.80;59.50;;;;;;5096630;27;20094;-70
2022/06/07 10:58:27;;;;;;;1.60;1.50;;;20.80;59.50;;;;;;5093496;28;20054;-69
2022/06/07 11:01:17;;;;;;;1.60;1.50;;;20.80;59.50;;;;;;5100297;28;20385;-69
2022/06/07 11:04:10;;;;;;;2.13;2.03;;;20.80;59.80;;;;;;5084371;28;20059;-70
2022/06/07 11:09:43;;;;;;;2.50;1.80;;;20.70;59.60;;;;;;5091095;28;20454;-67
2022/06/07 11:12:19;;;;;;;1.80;1.70;;;20.80;59.60;;;;;;5089558;28;20503;-68
2022/06/07 11:15:14;;;;;;;1.83;1.73;;;20.70;59.60;;;;;;5091374;28;20047;-67
2022/06/07 11:18:05;;;;;;;1.80;1.55;;;20.70;59.20;;;;;;5089389;28;20121;-67
2022/06/07 11:21:02;;;;;;;;;;;20.70;59.10;;;;;;5086086;28;20060;-69
2022/06/07 11:23:37;;;;;;;1.80;1.70;;;20.60;59.30;;;;;;5085074;28;19924;-67
2022/06/07 11:26:11;;;;;;;2.10;1.83;;;20.60;59.60;;;;;;5084644;28;20076;-66
2022/06/07 11:28:52;;;;;;;2.35;1.90;;;20.60;59.50;;;;;;5088288;28;20048;-66
2022/06/07 11:31:41;;;;;;;1.90;1.73;;;20.60;59.70;;;;;;5092343;28;20056;-67
2022/06/07 11:34:29;;;;;;;1.67;1.58;;;20.60;59.90;;;;;;5089558;27;20044;-68
2022/06/07 11:37:32;;;;;;;2.42;2.10;;;20.50;59.90;;;;;;5089932;28;20055;-68
2022/06/07 11:39:59;;;;;;;1.77;1.67;;;20.60;60.00;;;;;;5096590;27;20048;-66
2022/06/07 11:42:35;;;;;;;2.00;1.90;;;20.60;60.40;;;;;;5092066;28;20450;-68
2022/06/07 11:45:20;;;;;;;1.75;1.65;;;20.60;60.20;;;;;;5088435;28;20058;-67
2022/06/07 11:48:15;;;;;;;1.88;1.77;;;20.60;60.40;;;;;;5087599;28;20040;-68
2022/06/07 11:50:54;;;;;;;3.00;2.70;;;20.60;60.50;;;;;;5090072;28;20051;-66
2022/06/07 11:53:27;;;;;;;3.20;1.67;;;20.60;60.50;;;;;;5089370;28;20044;-69
2022/06/07 11:56:22;;;;;;;2.08;1.98;;;20.60;60.40;;;;;;5088608;28;20055;-69
2022/06/07 11:58:58;;;;;;;1.98;1.85;;;20.70;60.40;;;;;;5083637;28;20662;-68
2022/06/07 12:01:36;;;;;;;3.65;2.10;;;20.70;60.60;;;;;;5093340;27;20060;-69
2022/06/07 12:04:28;;;;;;;2.65;2.45;;;20.70;60.60;;;;;;5077119;28;20052;-70
2022/06/07 12:07:00;;;;;;;2.20;2.10;;;20.70;60.60;;;;;;5080689;28;20047;-69
2022/06/07 12:09:29;;;;;;;2.40;2.22;;;20.80;60.50;;;;;;5082715;28;20060;-69
2022/06/07 12:11:56;;;;;;;2.10;2.00;;;20.80;60.30;;;;;;5082536;28;20393;-68
2022/06/07 12:14:37;;;;;;;2.00;1.90;;;20.80;60.30;;;;;;5084211;28;20052;-67
2022/06/07 12:17:21;;;;;;;1.88;1.77;;;20.80;60.40;;;;;;5081571;28;20051;-73
2022/06/07 12:19:49;;;;;;;2.10;2.00;;;20.90;60.50;;;;;;5088693;28;20059;-70
2022/06/07 12:22:20;;;;;;;2.35;2.15;;;20.90;60.80;;;;;;5087411;28;20052;-69
2022/06/07 12:24:54;;;;;;;;;;;20.90;61.00;;;;;;5083487;28;20044;-67
2022/06/07 12:27:30;;;;;;;3.08;2.75;;;20.90;61.10;;;;;;5085808;28;19935;-67
2022/06/07 12:30:27;;;;;;;2.03;1.92;;;21.00;61.30;;;;;;5087329;28;20097;-67
2022/06/07 12:32:56;;;;;;;2.35;2.20;;;21.00;61.40;;;;;;5091376;28;20054;-70
2022/06/07 12:35:29;;;;;;;2.55;2.38;;;21.00;61.60;;;;;;5087140;28;20047;-68
2022/06/07 12:37:59;;;;;;;2.25;2.13;;;21.10;61.50;;;;;;5088634;28;20668;-69
2022/06/07 12:40:45;;;;;;;2.10;2.00;;;21.10;61.80;;;;;;5087003;28;20047;-67
2022/06/07 12:43:31;;;;;;;2.50;2.30;;;21.20;61.50;;;;;;5090894;28;20052;-66
2022/06/07 12:46:07;;;;;;;1.80;1.70;;;21.20;61.60;;;;;;5085218;28;20054;-67
2022/06/07 12:48:40;;;;;;;1.90;1.80;;;21.30;61.70;;;;;;5089316;28;20050;-70
2022/06/07 12:51:34;;;;;;;2.72;2.53;;;21.40;61.60;;;;;;5089574;28;20052;-70
2022/06/07 12:54:07;;;;;;;2.13;2.00;;;21.40;61.50;;;;;;5091543;27;20442;-69
2022/06/07 12:56:38;;;;;;;3.17;2.28;;;21.40;61.30;;;;;;5087953;28;20097;-73
2022/06/07 12:59:09;;;;;;;2.50;2.30;;;21.40;61.40;;;;;;5087251;28;20124;-70
2022/06/07 13:01:41;;;;;;;2.03;1.92;;;21.50;61.20;;;;;;5088156;28;20100;-66
2022/06/07 13:04:35;;;;;;;2.17;2.08;;;21.50;61.10;;;;;;5087626;28;20085;-67
2022/06/07 13:07:24;;;;;;;3.38;2.28;;;21.50;61.00;;;;;;5082877;28;20623;-67
2022/06/07 13:10:15;;;;;;;2.30;2.13;;;21.50;60.90;;;;;;5088720;28;20071;-68
2022/06/07 13:12:49;;;;;;;2.08;1.98;;;21.60;60.50;;;;;;5084012;28;20113;-65
2022/06/07 13:15:28;;;;;;;2.38;2.20;;;21.50;60.70;;;;;;5091561;28;20097;-68
2022/06/07 13:18:05;;;;;;;2.33;2.22;;;21.50;60.60;;;;;;5083903;28;20058;-73
2022/06/07 13:20:41;;;;;;;2.17;1.98;;;21.60;60.60;;;;;;5081764;28;20047;-72
2022/06/07 13:23:32;;;;;;;2.55;2.30;;;21.50;60.40;;;;;;5085527;28;20063;-72
2022/06/07 13:26:21;;;;;;;1.90;1.80;;;21.50;60.30;;;;;;5085165;28;20566;-67
2022/06/07 13:29:09;;;;;;;1.98;1.88;;;21.40;60.30;;;;;;5082922;28;20078;-68
2022/06/07 13:31:51;;;;;;;2.35;2.25;;;21.50;60.40;;;;;;5085391;28;20420;-68
2022/06/07 13:34:34;;;;;;;2.42;2.10;;;21.50;60.60;;;;;;5088521;28;20052;-72
2022/06/07 13:37:14;;;;;;;1.98;1.88;;;21.50;60.70;;;;;;5083845;28;20086;-70
2022/06/07 13:39:55;;;;;;;;;;;21.50;60.70;;;;;;5089800;28;20523;-72
2022/06/07 13:42:25;;;;;;;2.53;2.38;;;21.50;60.50;;;;;;5089583;28;19971;-70
2022/06/07 13:45:18;;;;;;;2.17;2.08;;;21.60;60.50;;;;;;5083530;28;20040;-70
2022/06/07 13:48:13;;;;;;;2.72;2.25;;;21.60;60.60;;;;;;5086673;28;20048;-68